Latest Weather Observations for Perth

IDW60801

Issued at 1:35 pm WST Friday 28 November 2014 (issued every 30 minutes, with the page automatically refreshed every 10 minutes)

About weather observations | Map of weather stations | Latest weather observations for WA | Other Formats
Station Details ID: 009225 Name: PERTH METRO Lat: -31.92 Lon: 115.87 Height: 24.9 m
Data from the previous 72 hours. | See also: Recent months at Perth
Date/Time
WST
Temp
°C
App
Temp
°C
Dew
Point
Rel
Hum
%
Delta-T
°C
Wind Press
QNH
hPa
Press
MSL
hPa
Rain
since 9 am
mm
Dir
 
Spd
km/h
Gust
km/h
Spd
kts
Gust
kts
28/01:30pm 23.7 22.9 16.2 63 4.6 SW 15 26 8 14 1011.0 1011.0 0.0
28/01:00pm 22.5 21.6 16.8 70 3.5 SW 17 28 9 15 1011.3 1011.3 0.0
28/12:30pm 21.2 20.4 17.0 77 2.6 SW 17 30 9 16 1011.5 1011.5 0.0
28/12:00pm 22.1 21.2 16.8 72 3.2 SW 17 28 9 15 1011.4 1011.4 0.0
28/11:30am 22.4 20.9 16.4 69 3.6 SW 19 32 10 17 1011.2 1011.2 0.0
28/11:00am 23.6 22.9 16.4 64 4.4 SW 15 30 8 16 1010.8 1010.8 0.0
28/10:30am 22.2 21.6 16.7 71 3.4 SW 15 26 8 14 1010.8 1010.8 0.0
28/10:00am 23.1 22.8 18.2 74 3.1 SW 17 28 9 15 1010.6 1010.6 0.0
28/09:30am 22.4 22.4 17.1 72 3.3 SW 13 28 7 15 1010.5 1010.5 0.0
28/09:00am 21.6 21.7 17.4 77 2.6 SW 13 22 7 12 1010.4 1010.4 1.4
28/08:30am 21.9 21.6 17.3 75 2.8 SW 15 26 8 14 1010.3 1010.3 1.4
28/08:00am 22.3 22.5 16.8 71 3.4 SW 11 19 6 10 1010.1 1010.1 1.4
28/07:30am 22.1 22.5 16.4 70 3.5 SW 9 15 5 8 1010.0 1010.0 1.4
28/07:00am 21.6 22.6 16.8 74 2.9 SSW 7 11 4 6 1009.8 1009.8 1.4
28/06:30am 20.2 21.0 16.4 79 2.3 SSW 7 15 4 8 1009.8 1009.8 1.4
28/06:00am 19.3 20.1 16.3 83 1.8 SSW 7 11 4 6 1009.6 1009.6 1.4
28/05:30am 18.7 20.1 16.5 87 1.3 SW 4 7 2 4 1009.2 1009.2 1.4
28/05:00am 18.6 19.6 16.4 87 1.3 SW 6 9 3 5 1009.2 1009.2 1.4
28/04:30am 18.8 20.2 16.4 86 1.4 SSW 4 6 2 3 1008.8 1008.8 1.4
28/04:00am 19.2 21.1 16.8 86 1.5 S 2 7 1 4 1008.7 1008.7 1.4
28/03:30am 19.7 21.8 17.1 85 1.6 SSE 2 7 1 4 1008.8 1008.8 1.4
28/03:00am 19.8 21.0 16.8 83 1.8 SSE 6 9 3 5 1008.6 1008.6 1.4
28/02:30am 20.0 22.1 17.2 84 1.7 S 2 6 1 3 1008.7 1008.7 1.4
28/02:00am 20.1 22.2 17.1 83 1.8 S 2 7 1 4 1008.7 1008.7 1.4
28/01:30am 20.2 21.9 17.2 83 1.8 S 4 7 2 4 1008.7 1008.7 1.4
28/01:00am 20.2 21.4 17.4 84 1.7 S 7 9 4 5 1009.0 1009.0 1.4
28/12:30am 19.5 22.1 17.5 88 1.2 CALM 0 6 0 3 1009.1 1009.1 1.4
28/12:00am 19.8 21.3 17.6 87 1.4 SSE 6 7 3 4 1009.1 1009.1 1.4
 
Date/Time
WST
Temp
°C
App
Temp
°C
Dew
Point
Rel
Hum
%
Delta-T
°C
Wind Press
QNH
hPa
Press
MSL
hPa
Rain
since 9 am
mm
Dir
 
Spd
km/h
Gust
km/h
Spd
kts
Gust
kts
27/11:30pm 20.3 21.8 17.5 84 1.7 SSE 6 7 3 4 1009.1 1009.1 1.4
27/11:00pm 21.1 22.6 17.7 81 2.1 SSE 6 9 3 5 1009.3 1009.3 1.4
27/10:30pm 21.3 22.8 17.5 79 2.3 SSE 6 9 3 5 1009.2 1009.2 1.4
27/10:00pm 21.7 23.0 17.5 77 2.6 SSW 7 17 4 9 1009.2 1009.2 1.4
27/09:30pm 21.9 23.4 17.5 76 2.7 S 6 13 3 7 1009.2 1009.2 1.4
27/09:00pm 21.8 24.9 18.6 82 2.0 CALM 0 0 0 0 1009.0 1009.0 1.4
27/08:30pm 21.8 24.7 18.2 80 2.2 CALM 0 0 0 0 1008.8 1008.8 1.4
27/08:00pm 22.0 24.7 17.8 77 2.6 CALM 0 6 0 3 1008.4 1008.4 1.4
27/07:30pm 22.8 24.6 17.5 72 3.3 SSE 4 7 2 4 1008.4 1008.4 1.4
27/07:00pm 23.9 26.0 17.2 66 4.2 SSE 2 6 1 3 1008.5 1008.5 1.4
27/06:30pm 24.9 25.8 16.6 60 5.1 SSE 7 11 4 6 1008.3 1008.3 1.4
27/06:00pm 25.3 25.7 16.2 57 5.6 E 9 13 5 7 1008.4 1008.4 1.4
27/05:30pm 25.5 26.0 16.6 58 5.5 SE 9 19 5 10 1008.5 1008.5 1.4
27/05:00pm 25.0 25.3 18.0 65 4.4 SSE 13 20 7 11 1008.5 1008.5 1.4
27/04:30pm 24.7 24.6 17.9 66 4.3 SSE 15 24 8 13 1008.9 1008.9 1.4
27/04:00pm 24.2 23.4 17.0 64 4.5 SSE 17 26 9 14 1009.4 1009.4 1.4
27/03:30pm 24.3 24.6 18.7 71 3.6 S 15 24 8 13 1009.7 1009.7 1.4
27/03:00pm 22.6 23.4 19.0 80 2.3 SSE 13 19 7 10 1010.2 1010.2 1.4
27/02:30pm 22.2 23.6 18.6 80 2.3 S 9 13 5 7 1010.9 1010.9 1.0
27/02:00pm 23.2 25.0 19.6 80 2.3 SSW 9 17 5 9 1010.6 1010.6 0.4
27/01:30pm 25.3 25.4 17.5 62 4.9 S 13 20 7 11 1010.0 1010.0 0.0
27/01:00pm 25.9 26.2 17.8 61 5.1 S 13 20 7 11 1010.1 1010.1 0.0
27/12:30pm 24.4 24.6 17.6 66 4.2 S 13 24 7 13 1010.3 1010.3 0.0
27/12:00pm 24.2 23.7 17.9 68 4.0 SSE 17 20 9 11 1010.8 1010.8 0.0
27/11:30am 23.8 23.9 16.6 64 4.4 S 11 17 6 9 1011.3 1011.3 0.0
27/11:00am 23.8 24.1 17.1 66 4.1 S 11 20 6 11 1011.5 1011.5 0.0
27/10:30am 23.5 25.5 17.9 71 3.5 WSW 4 11 2 6 1012.3 1012.2 0.0
27/10:00am 23.3 24.2 17.5 70 3.6 SW 9 11 5 6 1012.4 1012.3 0.0
27/09:30am 23.3 24.7 17.3 69 3.7 SW 6 7 3 4 1011.9 1011.9 0.0
27/09:00am 23.9 24.6 17.9 69 3.8 S 11 17 6 9 1011.3 1011.3 11.4
27/08:30am 22.9 24.7 17.4 71 3.4 SSW 4 9 2 5 1011.9 1011.9 11.4
27/08:00am 21.9 24.3 18.9 83 1.9 SW 4 9 2 5 1011.7 1011.7 11.4
27/07:30am 20.7 22.9 18.3 86 1.5 WSW 4 7 2 4 1011.9 1011.9 11.4
27/07:00am 19.7 21.5 18.4 92 0.8 SW 6 11 3 6 1011.6 1011.6 11.4
27/06:30am 19.4 22.2 17.9 91 0.9 CALM 0 6 0 3 1011.5 1011.5 11.4
27/06:00am 20.0 21.2 17.4 85 1.6 N 7 17 4 9 1011.7 1011.7 10.6
27/05:30am 20.1 20.4 17.1 83 1.8 NE 11 20 6 11 1010.5 1010.5 10.6
27/05:00am 19.9 19.9 17.1 84 1.7 N 13 20 7 11 1010.0 1010.0 10.4
27/04:30am 21.0 20.8 16.8 77 2.6 NNE 13 24 7 13 1009.4 1009.4 8.4
27/04:00am 21.3 21.3 16.3 73 3.0 NE 11 19 6 10 1008.9 1008.9 8.4
27/03:30am 20.9 21.2 16.1 74 2.9 NNE 9 13 5 7 1008.7 1008.7 8.4
27/03:00am 21.0 21.3 16.0 73 3.0 NE 9 15 5 8 1008.8 1008.8 8.4
27/02:30am 21.6 20.6 15.7 69 3.5 NE 15 20 8 11 1008.8 1008.8 8.4
27/02:00am 21.4 20.8 15.7 70 3.4 NE 13 19 7 10 1009.0 1009.0 8.4
27/01:30am 21.5 20.1 15.6 69 3.5 ENE 17 28 9 15 1008.9 1008.9 8.4
27/01:00am 21.7 20.3 15.5 68 3.7 NE 17 28 9 15 1008.7 1008.7 8.4
27/12:30am 21.3 21.1 15.6 70 3.4 NE 11 17 6 9 1009.2 1009.2 8.4
27/12:00am 21.5 21.6 15.6 69 3.5 ENE 9 17 5 9 1009.6 1009.6 8.4
 
Date/Time
WST
Temp
°C
App
Temp
°C
Dew
Point
Rel
Hum
%
Delta-T
°C
Wind Press
QNH
hPa
Press
MSL
hPa
Rain
since 9 am
mm
Dir
 
Spd
km/h
Gust
km/h
Spd
kts
Gust
kts
26/11:30pm 21.4 20.8 15.7 70 3.4 ENE 13 28 7 15 1009.7 1009.7 8.4
26/11:00pm 21.4 21.2 15.7 70 3.4 E 11 22 6 12 1009.9 1009.9 8.4
26/10:30pm 21.6 21.4 15.7 69 3.5 NE 11 19 6 10 1010.0 1010.0 8.4
26/10:00pm 21.2 21.5 16.0 72 3.1 E 9 19 5 10 1009.9 1009.9 8.4
26/09:30pm 20.5 21.0 16.5 78 2.4 E 9 17 5 9 1009.9 1009.9 8.4
26/09:00pm 20.1 21.2 16.5 80 2.2 E 6 15 3 8 1010.4 1010.4 8.4
26/08:30pm 20.4 21.2 16.4 78 2.4 SE 7 19 4 10 1010.2 1010.2 8.0
26/08:00pm 19.4 19.0 17.2 87 1.3 ESE 15 26 8 14 1010.0 1010.0 8.0
26/07:57pm 19.3 19.3 17.3 88 1.2 ESE 13 24 7 13 1010.3 1010.3 8.0
26/07:30pm 19.8 21.3 17.6 87 1.3 NE 6 11 3 6 1012.4 1012.3 7.4
26/07:00pm 20.0 21.1 17.0 83 1.8 ENE 7 11 4 6 1011.2 1011.2 7.0
26/06:30pm 20.4 20.2 16.6 79 2.3 E 13 20 7 11 1010.5 1010.5 6.8
26/06:00pm 20.3 20.6 16.9 81 2.1 E 11 20 6 11 1010.1 1010.1 6.6
26/05:30pm 20.5 19.9 16.7 79 2.3 ENE 15 28 8 15 1009.6 1009.6 6.0
26/05:00pm 21.0 20.1 16.8 77 2.6 ENE 17 32 9 17 1009.6 1009.6 4.6
26/04:30pm 22.7 20.5 16.0 66 4.0 ENE 22 37 12 20 1009.1 1009.1 3.0
26/04:00pm 22.8 22.9 16.6 68 3.8 ENE 11 17 6 9 1008.7 1008.7 1.8
26/03:30pm 23.0 24.1 17.0 69 3.7 E 7 13 4 7 1007.9 1007.9 1.4
26/03:00pm 27.0 25.6 13.4 43 8.0 SE 13 22 7 12 1006.8 1006.8 0.2
26/02:30pm 26.1 26.3 15.8 53 6.3 ESE 9 15 5 8 1007.7 1007.7 0.2
26/02:00pm 27.9 26.8 13.1 40 8.7 SSE 11 22 6 12 1008.6 1008.6 0.0
26/01:30pm 29.3 28.3 12.3 35 9.9 SSE 9 15 5 8 1008.5 1008.5 0.0
26/01:00pm 31.9 29.9 8.8 24 13.0 E 9 17 5 9 1008.8 1008.8 0.0
26/12:30pm 32.5 30.3 8.0 22 13.6 E 9 19 5 10 1008.6 1008.6 0.0
26/12:00pm 33.0 30.0 9.1 23 13.5 ENE 15 20 8 11 1009.0 1009.0 0.0
26/11:30am 32.1 31.0 11.8 29 11.9 E 9 15 5 8 1009.6 1009.6 0.0
26/11:00am 30.0 28.6 11.0 31 10.9 E 9 20 5 11 1010.3 1010.3 0.0
26/10:30am 27.9 25.4 9.7 32 10.1 E 13 22 7 12 1010.9 1010.9 0.0
26/10:00am 26.5 24.0 9.8 35 9.3 ESE 13 22 7 12 1011.4 1011.4 0.0
26/09:30am 25.4 22.0 9.3 36 8.8 ENE 17 28 9 15 1011.8 1011.8 0.0
26/09:00am 24.9 23.1 9.6 38 8.4 E 9 26 5 14 1012.1 1012.1 0.0
26/08:30am 24.3 22.2 9.8 40 7.9 ESE 11 22 6 12 1012.4 1012.3 0.0
26/08:00am 22.9 21.1 11.0 47 6.6 E 11 19 6 10 1012.7 1012.6 0.0
26/07:30am 21.7 19.7 10.2 48 6.3 E 11 24 6 13 1012.8 1012.7 0.0
26/07:00am 21.0 19.5 10.5 51 5.7 E 9 19 5 10 1012.7 1012.6 0.0
26/06:30am 20.0 17.6 10.1 53 5.3 E 13 24 7 13 1012.6 1012.5 0.0
26/06:00am 19.7 16.9 10.1 54 5.2 E 15 30 8 16 1012.6 1012.5 0.0
26/05:30am 19.7 16.9 10.1 54 5.2 E 15 26 8 14 1012.5 1012.4 0.0
26/05:00am 19.6 16.1 10.3 55 5.0 E 19 28 10 15 1012.6 1012.5 0.0
26/04:30am 19.6 17.3 10.3 55 5.0 E 13 24 7 13 1012.6 1012.5 0.0
26/04:00am 19.6 17.7 10.6 56 4.9 ESE 11 24 6 13 1012.4 1012.3 0.0
26/03:30am 19.9 17.6 10.6 55 5.0 ESE 13 28 7 15 1012.3 1012.2 0.0
26/03:00am 20.5 17.5 10.6 53 5.4 E 17 33 9 18 1012.0 1012.0 0.0
26/02:30am 21.3 18.9 9.9 48 6.2 E 13 28 7 15 1011.9 1011.9 0.0
26/02:00am 21.7 19.6 9.6 46 6.5 E 11 20 6 11 1012.0 1012.0 0.0
26/01:30am 22.3 19.8 9.8 45 6.8 E 13 26 7 14 1012.0 1012.0 0.0
26/01:00am 23.4 19.4 9.0 40 7.7 E 20 37 11 20 1011.8 1011.8 0.0
26/12:30am 24.2 20.8 9.0 38 8.2 E 17 35 9 19 1011.7 1011.7 0.0
26/12:00am 25.4 21.2 8.4 34 9.1 E 20 35 11 19 1011.8 1011.8 0.0
 
Date/Time
WST
Temp
°C
App
Temp
°C
Dew
Point
Rel
Hum
%
Delta-T
°C
Wind Press
QNH
hPa
Press
MSL
hPa
Rain
since 9 am
mm
Dir
 
Spd
km/h
Gust
km/h
Spd
kts
Gust
kts
25/11:30pm 26.5 22.0 6.0 27 10.6 E 19 35 10 19 1011.9 1011.9 0.0
25/11:00pm 26.9 22.1 4.6 24 11.3 ESE 19 33 10 18 1012.1 1012.1 0.0
25/10:30pm 27.7 23.6 4.1 22 11.9 ESE 15 35 8 19 1012.4 1012.3 0.0
25/10:00pm 27.5 23.7 3.9 22 11.9 SE 13 28 7 15 1012.6 1012.5 0.0
25/09:30pm 27.5 24.5 3.9 22 11.9 SE 9 19 5 10 1012.7 1012.6 0.0
25/09:00pm 26.9 24.1 5.2 25 11.1 SE 9 15 5 8 1012.8 1012.7 0.0
25/08:30pm 27.5 24.8 5.7 25 11.3 SSE 9 13 5 7 1012.8 1012.7 0.0
25/08:00pm 28.3 25.8 6.4 25 11.6 SSE 9 15 5 8 1012.6 1012.5 0.0
25/07:30pm 29.3 26.2 5.4 22 12.5 SE 11 15 6 8 1012.1 1012.1 0.0
25/07:00pm 30.6 27.0 5.1 20 13.4 SE 13 24 7 13 1011.9 1011.9 0.0
25/06:30pm 31.7 27.9 3.7 17 14.4 SE 13 26 7 14 1011.8 1011.8 0.0
25/06:00pm 32.6 28.5 4.4 17 14.8 SE 15 28 8 15 1011.9 1011.9 0.0
25/05:30pm 33.5 30.3 5.1 17 15.1 SE 11 20 6 11 1011.8 1011.8 0.0
25/05:00pm 33.7 30.0 4.4 16 15.4 SE 13 19 7 10 1012.0 1012.0 0.0
25/04:30pm 34.0 30.5 3.7 15 15.8 ENE 11 20 6 11 1012.3 1012.2 0.0
25/04:00pm 34.2 31.5 5.7 17 15.4 SE 9 13 5 7 1012.6 1012.5 0.0
25/03:30pm 34.2 31.9 5.7 17 15.4 SSE 7 13 4 7 1012.9 1012.8 0.0
25/03:00pm 33.8 30.8 6.2 18 15.0 ESE 11 19 6 10 1013.2 1013.1 0.0
25/02:30pm 33.8 30.8 7.7 20 14.5 SSE 13 20 7 11 1013.6 1013.5 0.0
25/02:00pm 33.3 31.0 7.3 20 14.3 ESE 9 17 5 9 1014.1 1014.0 0.0

Other Formats:

Comma delimited format used in spreadsheet applications
http://www.bom.gov.au/fwo/IDW60801/IDW60801.94608.axf

JavaScript Object Notation format (JSON) in row-major order
http://www.bom.gov.au/fwo/IDW60801/IDW60801.94608.json